createdAt,value
2023-05-04T00:01:02.232Z,1.89
2023-05-04T00:03:30.059Z,2.00
2023-05-04T00:05:58.056Z,2.02
2023-05-04T00:08:25.874Z,1.92
2023-05-04T00:10:55.829Z,1.86
2023-05-04T00:13:23.925Z,1.78
2023-05-04T00:15:51.823Z,1.75
2023-05-04T00:18:19.489Z,1.73
2023-05-04T00:20:47.388Z,1.72
2023-05-04T00:23:15.171Z,1.77
2023-05-04T00:25:43.347Z,1.66
2023-05-04T00:28:11.050Z,1.63
2023-05-04T00:30:38.962Z,1.60
2023-05-04T00:33:06.856Z,1.60
2023-05-04T00:35:34.811Z,1.69
2023-05-04T00:38:05.035Z,1.67
2023-05-04T00:40:33.322Z,1.61
2023-05-04T00:43:01.106Z,1.59
2023-05-04T00:45:29.088Z,1.54
2023-05-04T00:47:56.830Z,1.43
2023-05-04T00:50:26.301Z,1.34
2023-05-04T00:52:58.426Z,1.43
2023-05-04T00:55:26.577Z,1.40
2023-05-04T00:57:54.404Z,1.40
2023-05-04T01:00:23.036Z,1.38
2023-05-04T01:02:51.229Z,1.34
2023-05-04T01:05:19.504Z,1.37
2023-05-04T01:08:13.418Z,1.35
2023-05-04T01:10:53.548Z,1.29
2023-05-04T01:13:23.097Z,1.43
2023-05-04T01:15:52.229Z,1.38
2023-05-04T01:18:19.888Z,1.30
2023-05-04T01:20:47.940Z,1.27
2023-05-04T01:23:16.616Z,1.46
2023-05-04T01:25:57.862Z,1.62
2023-05-04T01:29:04.456Z,1.63
2023-05-04T01:31:35.395Z,1.47
2023-05-04T01:34:03.520Z,1.53
2023-05-04T01:36:31.821Z,1.38
2023-05-04T01:39:00.002Z,1.42
2023-05-04T01:41:27.997Z,1.30
2023-05-04T01:43:55.996Z,1.11
2023-05-04T01:46:24.264Z,1.09
2023-05-04T01:48:51.999Z,0.99
2023-05-04T01:51:20.194Z,0.94
2023-05-04T01:53:47.947Z,0.86
2023-05-04T01:56:17.688Z,0.82
2023-05-04T01:58:45.857Z,0.77
2023-05-04T02:01:14.590Z,0.76
2023-05-04T02:03:42.534Z,0.74
2023-05-04T02:06:11.369Z,0.79
2023-05-04T02:08:39.355Z,0.92
2023-05-04T02:11:08.565Z,0.88
2023-05-04T02:13:36.661Z,0.77
2023-05-04T02:16:04.961Z,0.68
2023-05-04T02:18:32.679Z,0.64
2023-05-04T02:21:00.852Z,0.55
2023-05-04T02:23:28.593Z,0.62
2023-05-04T02:25:56.613Z,0.71
2023-05-04T02:28:24.782Z,0.78
2023-05-04T02:30:52.667Z,0.95
2023-05-04T02:33:20.423Z,0.86
2023-05-04T02:35:49.189Z,0.82
2023-05-04T02:38:16.820Z,0.91
2023-05-04T02:40:45.007Z,0.84
2023-05-04T02:43:12.705Z,0.84
2023-05-04T02:45:40.795Z,0.91
2023-05-04T02:48:09.032Z,0.83
2023-05-04T02:50:37.631Z,0.76
2023-05-04T02:53:05.301Z,0.69
2023-05-04T02:55:33.346Z,0.64
2023-05-04T02:58:01.284Z,0.55
2023-05-04T03:00:29.259Z,0.54
2023-05-04T03:02:57.034Z,0.53
2023-05-04T03:05:25.031Z,0.61
2023-05-04T03:07:53.572Z,0.53
2023-05-04T03:10:21.994Z,0.52
2023-05-04T03:12:50.500Z,0.48
2023-05-04T03:15:18.731Z,0.52
2023-05-04T03:17:46.619Z,0.79
2023-05-04T03:20:14.805Z,0.92
2023-05-04T03:22:43.245Z,0.99
2023-05-04T03:25:11.502Z,1.15
2023-05-04T03:27:39.176Z,1.20
2023-05-04T03:30:08.208Z,1.19
2023-05-04T03:32:37.425Z,1.25
2023-05-04T03:35:05.877Z,1.39
2023-05-04T03:37:33.660Z,1.52
2023-05-04T03:40:02.044Z,1.61
2023-05-04T03:42:29.790Z,1.86
2023-05-04T03:44:57.921Z,1.85
2023-05-04T03:47:25.684Z,1.79
2023-05-04T03:49:54.093Z,1.83
2023-05-04T03:52:21.855Z,1.83
2023-05-04T03:54:50.221Z,1.80
2023-05-04T03:57:18.176Z,1.86
2023-05-04T03:59:46.603Z,1.96
2023-05-04T04:02:14.853Z,2.04
2023-05-04T04:04:44.197Z,2.17
2023-05-04T04:07:12.464Z,2.39
2023-05-04T04:09:40.586Z,2.60
2023-05-04T04:12:08.282Z,2.63
2023-05-04T04:14:36.230Z,2.85
2023-05-04T04:17:03.955Z,2.96
2023-05-04T04:19:32.240Z,3.08
2023-05-04T04:22:00.050Z,3.19
2023-05-04T04:24:28.167Z,3.59
2023-05-04T04:26:56.097Z,5.69
2023-05-04T04:29:24.180Z,6.18
2023-05-04T04:31:51.818Z,5.83
2023-05-04T04:34:19.914Z,6.83
2023-05-04T04:36:47.592Z,7.55
2023-05-04T04:39:16.658Z,8.03
2023-05-04T04:41:44.401Z,8.39
2023-05-04T04:44:12.500Z,9.02
2023-05-04T04:46:40.416Z,11.36
2023-05-04T04:49:08.427Z,10.80
2023-05-04T04:51:36.653Z,10.38
2023-05-04T04:54:04.679Z,10.38
2023-05-04T04:56:32.418Z,10.60
2023-05-04T04:59:00.370Z,11.11
2023-05-04T05:01:28.206Z,10.59
2023-05-04T05:03:56.150Z,10.34
2023-05-04T05:06:24.037Z,10.64
2023-05-04T05:08:52.886Z,13.96
2023-05-04T05:11:20.813Z,16.58
2023-05-04T05:13:48.781Z,17.57
2023-05-04T05:16:16.458Z,19.85
2023-05-04T05:18:44.444Z,20.50
2023-05-04T05:21:12.189Z,20.66
2023-05-04T05:23:40.231Z,19.64
2023-05-04T05:26:07.874Z,20.78
2023-05-04T05:28:35.813Z,21.48
2023-05-04T05:31:03.913Z,21.68
2023-05-04T05:33:31.937Z,23.29
2023-05-04T05:35:59.649Z,21.71
2023-05-04T05:38:27.618Z,19.63
2023-05-04T05:40:55.632Z,18.24
2023-05-04T05:43:23.534Z,17.56
2023-05-04T05:45:51.194Z,17.78
2023-05-04T05:48:19.196Z,19.50
2023-05-04T05:50:46.820Z,19.98
2023-05-04T05:53:14.900Z,20.61
2023-05-04T05:55:42.544Z,20.85
2023-05-04T05:58:10.544Z,19.98
2023-05-04T06:00:38.291Z,21.52
2023-05-04T06:03:06.410Z,23.32
2023-05-04T06:05:37.212Z,23.67
2023-05-04T06:08:05.284Z,23.93
2023-05-04T06:10:33.605Z,22.00
2023-05-04T06:13:01.831Z,21.39
2023-05-04T06:15:29.594Z,21.51
2023-05-04T06:17:57.500Z,21.65
2023-05-04T06:20:25.224Z,21.46
2023-05-04T06:22:53.181Z,20.89
2023-05-04T06:25:21.042Z,21.22
2023-05-04T06:27:48.975Z,21.25
2023-05-04T06:30:16.903Z,21.12
2023-05-04T06:32:44.824Z,21.74
2023-05-04T06:35:13.774Z,22.88
2023-05-04T06:37:41.758Z,23.29
2023-05-04T06:40:10.227Z,22.79
2023-05-04T06:42:38.348Z,22.92
2023-05-04T06:45:06.645Z,23.36
2023-05-04T06:47:37.931Z,23.98
2023-05-04T06:50:09.739Z,25.53
2023-05-04T06:52:44.267Z,27.20
2023-05-04T06:55:12.065Z,28.44
2023-05-04T06:57:40.132Z,29.66
2023-05-04T07:00:08.961Z,30.00
2023-05-04T07:02:37.003Z,28.97
2023-05-04T07:05:04.978Z,29.81
2023-05-04T07:07:32.975Z,29.83
2023-05-04T07:10:00.645Z,30.40
2023-05-04T07:12:29.121Z,30.67
2023-05-04T07:14:56.816Z,32.03
2023-05-04T07:17:25.559Z,32.36
2023-05-04T07:19:53.512Z,32.53
2023-05-04T07:22:21.700Z,32.66
2023-05-04T07:24:49.488Z,32.73
2023-05-04T07:27:17.393Z,32.20
2023-05-04T07:29:45.073Z,32.78
2023-05-04T07:32:12.990Z,33.63
2023-05-04T07:34:45.765Z,33.17
2023-05-04T07:37:15.905Z,34.55
2023-05-04T07:39:43.692Z,35.18
2023-05-04T07:42:11.786Z,34.96
2023-05-04T07:44:39.776Z,35.43
2023-05-04T07:47:08.141Z,35.36
2023-05-04T07:49:35.944Z,34.66
2023-05-04T07:52:04.609Z,36.03
2023-05-04T07:54:32.458Z,35.58
2023-05-04T07:57:03.698Z,36.03
2023-05-04T07:59:31.699Z,35.13
2023-05-04T08:01:59.829Z,33.14
2023-05-04T08:04:27.613Z,30.54
2023-05-04T08:06:55.511Z,28.92
2023-05-04T08:09:23.436Z,27.46
2023-05-04T08:11:51.344Z,29.62
2023-05-04T08:14:19.054Z,31.84
2023-05-04T08:16:47.774Z,33.21
2023-05-04T08:19:15.446Z,34.59
2023-05-04T08:21:43.385Z,35.71
2023-05-04T08:24:11.707Z,35.10
2023-05-04T08:26:39.784Z,34.64
2023-05-04T08:29:10.585Z,34.14
2023-05-04T08:31:40.513Z,35.16
2023-05-04T08:34:08.299Z,35.62
2023-05-04T08:36:36.353Z,35.91
2023-05-04T08:39:04.042Z,34.42
2023-05-04T08:41:32.370Z,34.06
2023-05-04T08:44:00.400Z,34.57
2023-05-04T08:46:31.615Z,33.91
2023-05-04T08:48:59.335Z,34.21
2023-05-04T08:51:27.673Z,34.44
2023-05-04T08:53:56.439Z,34.07
2023-05-04T08:56:25.492Z,33.53
2023-05-04T08:58:53.842Z,33.52
2023-05-04T09:01:22.781Z,33.86
2023-05-04T09:03:52.426Z,33.78
2023-05-04T09:06:21.094Z,34.19
2023-05-04T09:08:48.817Z,34.31
2023-05-04T09:11:17.137Z,34.58
2023-05-04T09:13:44.809Z,34.30
2023-05-04T09:16:14.981Z,34.68
2023-05-04T09:18:46.323Z,35.32
2023-05-04T09:21:14.403Z,35.85
2023-05-04T09:23:49.011Z,34.94
2023-05-04T09:26:30.676Z,31.19
2023-05-04T09:29:11.951Z,28.85
2023-05-04T09:31:58.632Z,26.95
2023-05-04T09:34:26.444Z,25.73
2023-05-04T09:37:01.973Z,24.32
2023-05-04T09:39:30.586Z,24.01
2023-05-04T09:41:58.809Z,24.69
2023-05-04T09:44:29.771Z,26.23
2023-05-04T09:46:59.046Z,24.76
2023-05-04T09:49:37.048Z,23.88
2023-05-04T09:52:07.065Z,23.21
2023-05-04T09:54:36.378Z,22.28
2023-05-04T09:57:17.709Z,22.01
2023-05-04T09:59:45.656Z,21.36
2023-05-04T10:02:22.822Z,20.92
2023-05-04T10:04:52.774Z,20.38
2023-05-04T10:07:21.234Z,20.09
2023-05-04T10:09:51.282Z,19.75
2023-05-04T10:12:19.445Z,20.03
2023-05-04T10:14:47.743Z,20.90
2023-05-04T10:17:40.892Z,20.83
2023-05-04T10:20:51.069Z,20.26
2023-05-04T10:23:31.015Z,20.08
2023-05-04T10:26:16.927Z,20.11
2023-05-04T10:29:35.947Z,20.38
2023-05-04T10:32:04.281Z,20.12
2023-05-04T10:34:34.611Z,20.09
2023-05-04T10:37:04.595Z,20.13
2023-05-04T10:39:35.320Z,20.32
2023-05-04T10:42:07.954Z,20.16
2023-05-04T10:44:49.068Z,20.44
2023-05-04T10:47:26.848Z,20.44
2023-05-04T10:50:04.832Z,20.49
2023-05-04T10:52:50.523Z,20.18
2023-05-04T10:55:19.987Z,19.96
2023-05-04T10:57:53.223Z,19.50
2023-05-04T11:00:22.028Z,19.08
2023-05-04T11:02:50.422Z,18.25
2023-05-04T11:05:20.395Z,18.10
2023-05-04T11:07:53.287Z,18.32
2023-05-04T11:10:23.526Z,18.26
2023-05-04T11:12:52.076Z,18.18
2023-05-04T11:15:21.318Z,18.44
2023-05-04T11:17:52.127Z,18.47
2023-05-04T11:20:25.496Z,18.73
2023-05-04T11:22:54.248Z,18.77
2023-05-04T11:25:29.548Z,18.53
2023-05-04T11:27:58.699Z,18.32
2023-05-04T11:30:36.487Z,18.25
2023-05-04T11:33:12.641Z,18.04
2023-05-04T11:35:42.412Z,17.84
2023-05-04T11:38:10.878Z,17.63
2023-05-04T11:40:41.317Z,17.49
2023-05-04T11:43:11.725Z,17.38
2023-05-04T11:45:41.528Z,17.25
2023-05-04T11:48:10.273Z,17.13
2023-05-04T11:50:38.697Z,17.54
2023-05-04T11:53:09.447Z,17.78
2023-05-04T11:55:38.226Z,18.26
2023-05-04T11:58:08.161Z,18.64
2023-05-04T12:00:40.511Z,18.93
2023-05-04T12:03:15.767Z,19.14
2023-05-04T12:05:52.460Z,19.42
2023-05-04T12:08:47.426Z,19.58
2023-05-04T12:11:25.924Z,19.66
2023-05-04T12:14:03.356Z,19.92
2023-05-04T12:16:31.643Z,20.22
2023-05-04T12:19:15.021Z,20.23
2023-05-04T12:21:53.769Z,20.47
2023-05-04T12:24:25.078Z,20.11
2023-05-04T12:26:53.293Z,19.97
2023-05-04T12:29:21.359Z,19.93
2023-05-04T12:31:49.441Z,19.97
2023-05-04T12:34:17.200Z,20.01
2023-05-04T12:36:45.213Z,20.18
2023-05-04T12:39:12.874Z,20.18
2023-05-04T12:41:41.067Z,20.27
2023-05-04T12:44:11.467Z,20.19
2023-05-04T12:46:39.419Z,20.12
2023-05-04T12:49:07.384Z,20.07
2023-05-04T12:51:35.649Z,19.99
2023-05-04T12:54:03.497Z,19.73
2023-05-04T12:56:32.181Z,19.54
2023-05-04T12:58:59.887Z,19.00
2023-05-04T13:01:27.860Z,18.88
2023-05-04T13:03:55.550Z,18.53
2023-05-04T13:06:23.583Z,18.44
2023-05-04T13:08:51.314Z,18.19
2023-05-04T13:11:20.169Z,17.95
2023-05-04T13:13:47.927Z,17.91
2023-05-04T13:16:17.187Z,17.81
2023-05-04T13:18:45.030Z,17.43
2023-05-04T13:21:13.779Z,17.35
2023-05-04T13:23:41.518Z,17.51
2023-05-04T13:26:09.563Z,17.72
2023-05-04T13:28:39.383Z,17.78
2023-05-04T13:31:08.771Z,18.11
2023-05-04T13:33:39.880Z,18.26
2023-05-04T13:36:08.211Z,17.99
2023-05-04T13:38:36.730Z,18.19
2023-05-04T13:41:04.716Z,17.98
2023-05-04T13:43:32.411Z,18.14
2023-05-04T13:46:03.865Z,18.25
2023-05-04T13:48:33.793Z,18.53
2023-05-04T13:51:04.087Z,18.53
2023-05-04T13:53:31.896Z,18.23
2023-05-04T13:55:59.897Z,18.27
2023-05-04T13:58:27.658Z,18.10
2023-05-04T14:00:56.459Z,18.19
2023-05-04T14:03:24.237Z,18.15
2023-05-04T14:05:52.728Z,18.27
2023-05-04T14:08:20.440Z,18.55
2023-05-04T14:10:48.393Z,18.52
2023-05-04T14:13:17.025Z,18.65
2023-05-04T14:15:47.262Z,18.81
2023-05-04T14:18:15.484Z,18.80
2023-05-04T14:20:43.623Z,18.66
2023-05-04T14:23:11.250Z,18.74
2023-05-04T14:25:42.042Z,18.75
2023-05-04T14:28:09.822Z,18.65
2023-05-04T14:30:37.789Z,18.65
2023-05-04T14:33:05.581Z,18.74
2023-05-04T14:35:34.529Z,18.47
2023-05-04T14:38:02.140Z,18.44
2023-05-04T14:40:30.191Z,18.43
2023-05-04T14:42:59.737Z,18.28
2023-05-04T14:45:27.789Z,18.21
2023-05-04T14:47:55.584Z,18.25
2023-05-04T14:50:23.619Z,17.96
2023-05-04T14:52:51.488Z,17.87
2023-05-04T14:55:19.413Z,17.99
2023-05-04T14:57:47.207Z,17.76
2023-05-04T15:00:16.172Z,17.63
2023-05-04T15:02:44.137Z,17.79
2023-05-04T15:05:12.822Z,17.65
2023-05-04T15:07:40.596Z,17.62
2023-05-04T15:10:10.616Z,17.36
2023-05-04T15:12:39.603Z,17.35
2023-05-04T15:15:08.163Z,17.23
2023-05-04T15:17:35.921Z,16.94
2023-05-04T15:20:05.023Z,16.93
2023-05-04T15:22:33.131Z,16.74
2023-05-04T15:25:01.894Z,16.73
2023-05-04T15:27:29.728Z,16.93
2023-05-04T15:29:57.987Z,16.90
2023-05-04T15:32:25.856Z,16.68
2023-05-04T15:35:04.437Z,16.60
2023-05-04T15:37:33.348Z,16.45
2023-05-04T15:40:02.668Z,16.50
2023-05-04T15:42:30.773Z,16.63
2023-05-04T15:44:58.740Z,16.45
2023-05-04T15:47:26.988Z,16.48
2023-05-04T15:49:55.214Z,16.34
2023-05-04T15:52:24.012Z,16.15
2023-05-04T15:54:51.926Z,16.08
2023-05-04T15:57:19.567Z,16.01
2023-05-04T15:59:49.619Z,15.90
2023-05-04T16:02:17.422Z,15.86
2023-05-04T16:04:45.707Z,15.88
2023-05-04T16:07:13.457Z,15.75
2023-05-04T16:09:41.499Z,15.86
2023-05-04T16:12:10.130Z,15.91
2023-05-04T16:14:38.095Z,15.89
2023-05-04T16:17:05.861Z,15.91
2023-05-04T16:19:33.788Z,15.92
2023-05-04T16:22:01.532Z,16.21
2023-05-04T16:24:29.469Z,16.07
2023-05-04T16:26:57.097Z,15.95
2023-05-04T16:29:25.159Z,16.07
2023-05-04T16:31:52.792Z,15.95
2023-05-04T16:34:20.800Z,15.99
2023-05-04T16:36:48.506Z,16.07
2023-05-04T16:39:18.758Z,16.17
2023-05-04T16:41:48.364Z,16.07
2023-05-04T16:44:16.541Z,16.06
2023-05-04T16:46:44.281Z,16.03
2023-05-04T16:49:14.606Z,16.18
2023-05-04T16:51:43.404Z,16.04
2023-05-04T16:54:11.561Z,15.90
2023-05-04T16:56:39.224Z,15.79
2023-05-04T16:59:07.356Z,15.87
2023-05-04T17:01:35.515Z,15.78
2023-05-04T17:04:03.536Z,15.77
2023-05-04T17:06:31.404Z,15.53
2023-05-04T17:08:59.317Z,15.43
2023-05-04T17:11:27.067Z,15.59
2023-05-04T17:13:56.095Z,15.37
2023-05-04T17:16:23.961Z,15.23
2023-05-04T17:18:51.894Z,15.17
2023-05-04T17:21:19.889Z,15.05
2023-05-04T17:23:47.793Z,14.98
2023-05-04T17:26:15.830Z,14.95
2023-05-04T17:28:44.406Z,14.78
2023-05-04T17:31:12.611Z,14.54
2023-05-04T17:33:40.710Z,14.28
2023-05-04T17:36:11.851Z,14.13
2023-05-04T17:38:41.278Z,14.17
2023-05-04T17:41:10.010Z,14.10
2023-05-04T17:43:38.907Z,13.93
2023-05-04T17:46:06.723Z,13.93
2023-05-04T17:48:36.424Z,13.87
2023-05-04T17:51:08.521Z,13.61
2023-05-04T17:53:36.748Z,13.51
2023-05-04T17:56:04.611Z,13.25
2023-05-04T17:58:32.553Z,13.31
2023-05-04T18:01:00.164Z,13.03
2023-05-04T18:03:28.369Z,12.93
2023-05-04T18:05:56.599Z,12.76
2023-05-04T18:08:24.618Z,12.60
2023-05-04T18:10:52.270Z,12.50
2023-05-04T18:13:20.432Z,12.43
2023-05-04T18:15:48.139Z,12.15
2023-05-04T18:18:16.386Z,12.13
2023-05-04T18:20:43.994Z,12.01
2023-05-04T18:23:11.962Z,11.83
2023-05-04T18:25:39.645Z,11.62
2023-05-04T18:28:08.396Z,11.58
2023-05-04T18:30:36.359Z,11.54
2023-05-04T18:33:04.736Z,11.82
2023-05-04T18:35:32.545Z,11.66
2023-05-04T18:38:00.669Z,11.50
2023-05-04T18:40:28.566Z,11.38
2023-05-04T18:42:56.624Z,11.33
2023-05-04T18:45:25.219Z,11.11
2023-05-04T18:47:53.321Z,11.02
2023-05-04T18:50:20.964Z,10.91
2023-05-04T18:52:48.974Z,10.87
2023-05-04T18:55:16.627Z,10.84
2023-05-04T18:57:44.672Z,10.77
2023-05-04T19:00:14.008Z,10.54
2023-05-04T19:02:42.013Z,10.57
2023-05-04T19:05:12.211Z,10.41
2023-05-04T19:07:41.788Z,10.21
2023-05-04T19:10:10.085Z,10.22
2023-05-04T19:12:38.039Z,10.36
2023-05-04T19:15:06.628Z,10.33
2023-05-04T19:17:34.957Z,10.15
2023-05-04T19:20:03.041Z,10.00
2023-05-04T19:22:31.172Z,10.11
2023-05-04T19:24:58.850Z,10.07
2023-05-04T19:27:26.903Z,9.97
2023-05-04T19:29:56.189Z,9.92
2023-05-04T19:32:25.195Z,9.96
2023-05-04T19:34:53.476Z,9.72
2023-05-04T19:37:22.020Z,9.65
2023-05-04T19:39:50.689Z,9.51
2023-05-04T19:42:18.683Z,9.50
2023-05-04T19:44:46.434Z,9.41
2023-05-04T19:47:14.419Z,9.27
2023-05-04T19:49:42.007Z,9.13
2023-05-04T19:52:10.063Z,9.02
2023-05-04T19:54:38.420Z,8.88
2023-05-04T19:57:06.996Z,8.80
2023-05-04T19:59:35.755Z,8.82
2023-05-04T20:02:03.868Z,8.98
2023-05-04T20:04:31.733Z,8.84
2023-05-04T20:06:59.697Z,8.67
2023-05-04T20:09:29.014Z,8.56
2023-05-04T20:11:57.004Z,8.47
2023-05-04T20:14:24.690Z,8.44
2023-05-04T20:16:52.738Z,8.36
2023-05-04T20:19:20.480Z,8.44
2023-05-04T20:21:48.823Z,8.47
2023-05-04T20:24:16.931Z,8.53
2023-05-04T20:26:45.079Z,8.54
2023-05-04T20:29:12.733Z,8.51
2023-05-04T20:31:41.441Z,8.37
2023-05-04T20:34:09.927Z,8.13
2023-05-04T20:36:37.808Z,8.00
2023-05-04T20:39:07.071Z,7.87
2023-05-04T20:41:35.113Z,7.90
2023-05-04T20:44:02.829Z,7.94
2023-05-04T20:46:32.040Z,7.85
2023-05-04T20:49:02.809Z,7.73
2023-05-04T20:51:31.582Z,7.68
2023-05-04T20:53:59.215Z,7.57
2023-05-04T20:56:27.341Z,7.52
2023-05-04T20:58:55.303Z,7.52
2023-05-04T21:01:23.507Z,7.43
2023-05-04T21:03:51.382Z,7.49
2023-05-04T21:06:19.365Z,7.49
2023-05-04T21:08:47.139Z,7.61
2023-05-04T21:11:15.074Z,7.43
2023-05-04T21:13:42.674Z,7.32
2023-05-04T21:16:11.395Z,7.34
2023-05-04T21:18:39.313Z,7.19
2023-05-04T21:21:07.277Z,7.15
2023-05-04T21:23:34.977Z,7.19
2023-05-04T21:26:04.066Z,7.20
2023-05-04T21:28:32.232Z,6.99
2023-05-04T21:31:00.314Z,6.86
2023-05-04T21:33:28.204Z,6.97
2023-05-04T21:35:56.215Z,6.83
2023-05-04T21:38:23.934Z,6.74
2023-05-04T21:40:51.852Z,6.62
2023-05-04T21:43:19.535Z,6.56
2023-05-04T21:45:47.501Z,6.66
2023-05-04T21:48:15.404Z,6.61
2023-05-04T21:50:43.321Z,6.53
2023-05-04T21:53:11.291Z,6.54
2023-05-04T21:55:39.218Z,6.62
2023-05-04T21:58:07.542Z,6.44
2023-05-04T22:00:35.540Z,6.39
2023-05-04T22:03:03.356Z,6.31
2023-05-04T22:05:31.261Z,6.30
2023-05-04T22:08:00.972Z,6.30
2023-05-04T22:10:29.139Z,6.35
2023-05-04T22:12:56.808Z,6.48
2023-05-04T22:15:31.683Z,6.50
2023-05-04T22:18:05.888Z,6.43
2023-05-04T22:20:34.685Z,6.46
2023-05-04T22:23:02.474Z,6.53
2023-05-04T22:25:31.293Z,6.56
2023-05-04T22:27:59.749Z,6.53
2023-05-04T22:30:28.262Z,6.62
2023-05-04T22:32:56.404Z,6.69
2023-05-04T22:35:24.632Z,6.74
2023-05-04T22:37:52.346Z,6.58
2023-05-04T22:40:20.418Z,6.52
2023-05-04T22:42:48.256Z,6.46
2023-05-04T22:45:18.348Z,6.42
2023-05-04T22:47:49.034Z,6.42
2023-05-04T22:50:17.522Z,6.44
2023-05-04T22:52:45.301Z,6.41
2023-05-04T22:55:13.290Z,6.41
2023-05-04T22:57:40.893Z,6.43
2023-05-04T23:00:10.023Z,6.49
2023-05-04T23:02:38.358Z,6.53
2023-05-04T23:05:07.047Z,6.59
2023-05-04T23:07:35.007Z,6.80
2023-05-04T23:10:03.560Z,6.82
2023-05-04T23:12:31.626Z,6.80
2023-05-04T23:14:59.657Z,6.65
2023-05-04T23:17:27.327Z,6.55
2023-05-04T23:19:55.606Z,6.52
2023-05-04T23:22:23.219Z,6.50
2023-05-04T23:24:51.191Z,6.40
2023-05-04T23:27:18.919Z,6.46
2023-05-04T23:29:46.895Z,6.53
2023-05-04T23:32:14.572Z,6.54
2023-05-04T23:34:42.870Z,6.82
2023-05-04T23:37:10.706Z,6.93
2023-05-04T23:39:38.565Z,6.96
2023-05-04T23:42:06.379Z,6.93
2023-05-04T23:44:34.278Z,7.00
2023-05-04T23:47:01.903Z,6.98
2023-05-04T23:49:29.914Z,7.05
2023-05-04T23:51:57.520Z,7.05
2023-05-04T23:54:25.396Z,7.04
2023-05-04T23:56:53.063Z,7.04
2023-05-04T23:59:21.128Z,7.06
